Time;durP1;ratioP1;P1;durP2;ratioP2;P2;SDS_P1;SDS_P2;PMS_P1;PMS_P2;Temp;Humidity;BMP_temperature;BMP_pressure;BME280_temperature;BME280_humidity;BME280_pressure;Samples;Min_cycle;Max_cycle;Signal;HPM_P1;HPM_P2
2021/10/28 00:14:19;;;;;;;8.20;4.40;;;;;;;16.15;76.98;101442.38;5054453;28;20683;-73
2021/10/28 00:16:47;;;;;;;12.17;4.73;;;;;;;16.25;76.59;101442.63;5054636;28;20187;-71
2021/10/28 00:19:13;;;;;;;7.07;4.13;;;;;;;16.00;77.32;101427.25;5053719;28;20178;-71
2021/10/28 00:21:39;;;;;;;8.17;4.70;;;;;;;16.32;76.62;101438.53;5056836;28;20274;-71
2021/10/28 00:24:10;;;;;;;7.00;4.47;;;;;;;16.41;76.01;101442.47;5053778;28;20175;-72
2021/10/28 00:26:37;;;;;;;8.67;4.60;;;;;;;16.56;76.01;101446.81;5053672;28;20183;-72
2021/10/28 00:29:05;;;;;;;6.17;4.33;;;;;;;16.31;76.91;101447.59;5054443;28;20195;-70
2021/10/28 00:31:32;;;;;;;6.97;4.47;;;;;;;15.91;77.08;101435.91;5053324;28;20176;-69
2021/10/28 00:33:58;;;;;;;8.87;4.70;;;;;;;16.10;76.93;101432.88;5054208;28;20245;-68
2021/10/28 00:36:24;;;;;;;7.50;4.93;;;;;;;16.18;76.90;101439.47;5052883;28;20183;-69
2021/10/28 00:38:50;;;;;;;7.67;4.67;;;;;;;16.34;76.64;101442.00;5053078;28;20167;-69
2021/10/28 00:41:18;;;;;;;9.77;5.03;;;;;;;16.29;76.73;101448.66;5052844;28;20714;-70
2021/10/28 00:43:48;;;;;;;5.90;4.70;;;;;;;16.20;77.01;101450.16;5053179;28;20236;-70
2021/10/28 00:46:15;;;;;;;5.67;4.33;;;;;;;16.25;76.63;101448.00;5053885;28;20661;-70
2021/10/28 00:48:41;;;;;;;6.43;5.00;;;;;;;16.27;76.39;101446.06;5052691;28;20203;-70
2021/10/28 00:51:07;;;;;;;6.40;4.93;;;;;;;15.95;77.09;101438.31;5054134;28;20176;-70
2021/10/28 00:53:33;;;;;;;6.20;5.00;;;;;;;15.94;77.34;101433.88;5054103;28;20568;-70
2021/10/28 00:55:59;;;;;;;8.10;4.70;;;;;;;16.10;76.83;101439.13;5052772;28;20576;-68
2021/10/28 00:58:24;;;;;;;7.60;5.00;;;;;;;16.22;76.61;101445.53;5053669;28;20183;-68
2021/10/28 01:00:51;;;;;;;8.40;4.50;;;;;;;16.44;75.99;101453.91;5052508;28;20179;-68
2021/10/28 01:03:17;;;;;;;7.70;4.83;;;;;;;16.06;77.61;101444.84;5052393;28;20207;-68
2021/10/28 01:05:42;;;;;;;9.47;4.90;;;;;;;16.26;76.79;101452.44;5054012;28;20529;-68
2021/10/28 01:08:08;;;;;;;6.57;5.03;;;;;;;16.12;77.37;101452.50;5052569;28;20200;-69
2021/10/28 01:10:34;;;;;;;7.83;5.07;;;;;;;16.05;77.80;101443.97;5053166;28;20186;-68
2021/10/28 01:12:59;;;;;;;9.83;5.20;;;;;;;16.21;76.98;101443.81;5054218;28;20221;-69
2021/10/28 01:15:24;;;;;;;10.93;5.10;;;;;;;16.40;76.42;101454.22;5053525;28;20176;-69
2021/10/28 01:17:50;;;;;;;11.40;5.97;;;;;;;16.06;77.03;101452.91;5052068;28;20183;-69
2021/10/28 01:20:15;;;;;;;7.33;5.10;;;;;;;16.14;77.31;101455.94;5052185;28;20176;-69
2021/10/28 01:22:43;;;;;;;8.23;5.17;;;;;;;16.10;77.18;101451.75;5053627;28;20199;-69
2021/10/28 01:25:08;;;;;;;7.07;5.17;;;;;;;16.39;76.53;101458.75;5052355;28;20255;-69
2021/10/28 01:27:34;;;;;;;6.87;5.60;;;;;;;16.29;76.28;101449.53;5053697;28;20283;-69
2021/10/28 01:29:59;;;;;;;8.43;5.13;;;;;;;16.50;75.77;101448.09;5053794;28;20290;-69
2021/10/28 01:32:24;;;;;;;7.00;5.10;;;;;;;16.28;76.00;101450.50;5053338;28;20195;-69
2021/10/28 01:34:50;;;;;;;6.40;5.30;;;;;;;16.29;76.50;101451.34;5053352;28;20172;-69
2021/10/28 01:37:15;;;;;;;9.57;5.30;;;;;;;16.10;77.31;101449.03;5053181;28;20184;-69
2021/10/28 01:39:41;;;;;;;5.93;5.20;;;;;;;16.22;77.11;101451.78;5051750;28;20358;-69
2021/10/28 01:42:09;;;;;;;10.30;5.43;;;;;;;16.42;76.81;101454.97;5051920;28;20756;-69
2021/10/28 01:44:38;;;;;;;8.13;5.40;;;;;;;16.04;77.07;101444.94;5053413;28;20164;-69
2021/10/28 01:47:03;;;;;;;8.47;4.93;;;;;;;16.23;76.59;101448.13;5052618;28;20179;-69
2021/10/28 01:49:29;;;;;;;9.00;5.43;;;;;;;16.17;77.17;101445.84;5052982;28;20252;-69
2021/10/28 01:51:56;;;;;;;6.60;4.90;;;;;;;16.04;77.72;101444.94;5052210;28;20253;-69
2021/10/28 01:54:22;;;;;;;7.70;5.10;;;;;;;15.93;78.09;101442.06;5053307;28;20625;-69
2021/10/28 01:56:47;;;;;;;6.80;4.57;;;;;;;15.77;78.77;101441.34;5035040;28;20190;-69
2021/10/28 01:59:13;;;;;;;7.40;4.57;;;;;;;16.01;77.38;101439.75;5053396;28;20180;-69
2021/10/28 02:01:38;;;;;;;8.77;4.40;;;;;;;15.73;78.11;101438.00;5055680;28;20253;-69
2021/10/28 02:04:04;;;;;;;7.87;4.83;;;;;;;15.79;79.02;101434.03;5073320;28;20169;-69
2021/10/28 02:06:30;;;;;;;7.90;4.63;;;;;;;15.90;78.26;101439.56;5073769;28;20170;-69
2021/10/28 02:08:55;;;;;;;6.03;4.67;;;;;;;15.62;78.62;101432.44;5073181;28;20202;-69
2021/10/28 02:11:21;;;;;;;6.57;3.93;;;;;;;15.74;78.62;101430.78;5056140;28;20548;-69
2021/10/28 02:13:46;;;;;;;7.10;4.23;;;;;;;15.83;78.63;101436.41;5055627;28;20190;-69
2021/10/28 02:16:11;;;;;;;5.57;4.20;;;;;;;15.85;78.48;101442.56;5073110;28;20590;-69
2021/10/28 02:18:37;;;;;;;7.53;4.30;;;;;;;15.66;79.11;101441.19;5072831;28;20224;-69
2021/10/28 02:21:02;;;;;;;10.73;4.20;;;;;;;15.89;78.46;101443.22;5055387;28;20183;-69
2021/10/28 02:23:27;;;;;;;6.77;4.20;;;;;;;15.62;79.58;101432.44;5055382;28;20194;-69
2021/10/28 02:25:53;;;;;;;9.20;4.30;;;;;;;15.79;79.32;101440.28;5038578;28;20179;-69
2021/10/28 02:28:18;;;;;;;7.73;4.40;;;;;;;15.69;79.55;101438.28;5055373;28;20663;-69
2021/10/28 02:30:43;;;;;;;7.33;4.00;;;;;;;15.73;78.79;101435.31;5073415;28;20207;-69
2021/10/28 02:33:09;;;;;;;6.77;3.50;;;;;;;14.86;81.34;101426.44;5055395;28;20681;-69
2021/10/28 02:35:35;;;;;;;4.80;3.93;;;;;;;15.63;79.74;101444.94;5055557;28;20177;-69
2021/10/28 02:38:00;;;;;;;6.00;4.10;;;;;;;15.85;78.36;101449.78;5073554;28;20175;-69
2021/10/28 02:40:28;;;;;;;7.50;3.83;;;;;;;15.70;79.13;101448.09;5073981;28;20606;-69
2021/10/28 02:42:53;;;;;;;7.13;4.57;;;;;;;15.57;79.75;101450.66;5055158;28;20198;-69
2021/10/28 02:45:18;;;;;;;5.73;4.17;;;;;;;15.71;79.01;101453.38;5055701;28;20198;-69
2021/10/28 02:47:44;;;;;;;6.80;3.93;;;;;;;15.56;79.32;101451.63;5038775;28;20199;-69
2021/10/28 02:50:09;;;;;;;9.97;4.60;;;;;;;15.60;79.63;101455.88;5073263;28;20175;-69
2021/10/28 02:52:35;;;;;;;8.43;4.27;;;;;;;15.74;79.12;101457.69;5058814;28;20191;-68
2021/10/28 02:55:01;;;;;;;6.57;4.27;;;;;;;15.35;80.11;101451.16;5060720;28;20209;-68
2021/10/28 02:57:26;;;;;;;7.07;4.03;;;;;;;15.40;80.40;101442.81;5060634;28;20590;-69
2021/10/28 02:59:51;;;;;;;6.20;4.23;;;;;;;15.41;80.27;101449.91;5061033;28;20217;-68
2021/10/28 03:02:17;;;;;;;7.07;4.00;;;;;;;15.11;81.89;101441.94;5078347;28;20219;-68
2021/10/28 03:04:43;;;;;;;5.53;4.07;;;;;;;15.33;80.72;101445.03;5077924;28;20620;-69
2021/10/28 03:07:08;;;;;;;7.00;4.23;;;;;;;15.47;80.41;101445.00;5058880;28;20538;-69
2021/10/28 03:09:34;;;;;;;8.97;4.03;;;;;;;15.17;80.94;101434.34;5077260;28;20252;-69
2021/10/28 03:12:00;;;;;;;9.93;3.87;;;;;;;15.19;81.08;101434.25;5042156;28;20634;-69
2021/10/28 03:27:58;;;;;;;12.30;5.17;;;;;;;14.82;83.11;101443.72;5076440;28;20621;-70
2021/10/28 03:30:24;;;;;;;6.67;4.50;;;;;;;14.97;82.50;101440.13;5058161;28;20228;-69
2021/10/28 03:32:50;;;;;;;6.80;4.73;;;;;;;14.82;82.75;101443.72;5075847;28;20198;-68
2021/10/28 03:35:16;;;;;;;4.83;4.23;;;;;;;14.83;83.32;101451.69;5076121;28;20690;-69
2021/10/28 03:37:51;;;;;;;10.93;4.87;;;;;;;14.68;83.63;101444.56;5075818;28;20163;-70
2021/10/28 03:48:59;;;;;;;8.87;5.07;;;;;;;14.22;86.28;101438.34;5060445;28;20198;-68
2021/10/28 03:51:42;;;;;;;10.53;5.27;;;;;;;14.52;84.52;101441.94;5051224;28;20187;-69
2021/10/28 03:54:42;;;;;;;7.87;4.50;;;;;;;14.34;85.19;101434.94;5062784;28;20179;-69
2021/10/28 04:00:18;;;;;;;7.93;5.03;;;;;;;14.32;85.08;101435.03;5075448;28;20212;-69
2021/10/28 04:03:35;;;;;;;7.30;4.77;;;;;;;14.23;85.29;101440.09;5074768;28;20236;-69
2021/10/28 04:08:46;;;;;;;7.60;4.53;;;;;;;14.09;85.21;101446.22;5075604;28;20281;-68
2021/10/28 04:16:29;;;;;;;9.97;4.43;;;;;;;14.24;83.94;101444.50;5058482;28;20186;-69
2021/10/28 04:16:59;;;;;;;5.80;4.50;;;;;;;13.76;85.03;101441.00;5060083;28;20190;-68
2021/10/28 04:19:37;;;;;;;6.33;4.73;;;;;;;13.49;85.38;101440.72;5074831;28;20163;-68
2021/10/28 04:30:14;;;;;;;6.37;4.50;;;;;;;13.82;84.59;101437.09;5075041;28;20259;-69
2021/10/28 04:32:40;;;;;;;5.43;4.13;;;;;;;13.86;84.69;101444.03;5040244;28;20340;-69
2021/10/28 04:35:07;;;;;;;6.83;4.50;;;;;;;13.92;84.92;101449.03;5074956;28;20266;-69
2021/10/28 04:37:32;;;;;;;11.57;4.70;;;;;;;13.77;84.46;101432.00;5074570;28;20221;-69
2021/10/28 04:39:58;;;;;;;9.60;4.63;;;;;;;13.67;84.93;101428.94;5074335;28;20191;-68
2021/10/28 04:42:23;;;;;;;7.13;4.30;;;;;;;13.77;85.37;101440.91;5056598;28;20195;-68
2021/10/28 04:44:49;;;;;;;9.60;4.80;;;;;;;13.66;85.52;101437.09;5074564;28;20202;-69
2021/10/28 04:47:14;;;;;;;5.07;4.57;;;;;;;13.37;85.57;101436.88;5074372;28;20171;-69
2021/10/28 04:49:39;;;;;;;8.10;5.03;;;;;;;13.63;85.25;101439.94;5074042;28;20210;-69
2021/10/28 04:52:06;;;;;;;6.97;4.67;;;;;;;13.28;86.09;101433.84;5074393;28;20210;-69
2021/10/28 04:54:31;;;;;;;11.47;5.03;;;;;;;13.50;85.68;101438.91;5039764;28;20656;-70
2021/10/28 04:56:57;;;;;;;7.93;4.77;;;;;;;13.50;85.98;101439.78;5074404;28;20181;-69
2021/10/28 04:59:22;;;;;;;8.17;5.10;;;;;;;13.62;85.28;101438.22;5074035;28;20178;-69
2021/10/28 05:01:48;;;;;;;7.57;4.67;;;;;;;13.70;84.49;101439.50;5073810;28;20214;-70
2021/10/28 05:04:13;;;;;;;7.47;4.33;;;;;;;13.80;84.54;101439.88;5074229;28;20509;-70
2021/10/28 05:06:38;;;;;;;13.37;5.33;;;;;;;13.27;85.87;101429.44;5074198;28;20167;-70
2021/10/28 05:09:04;;;;;;;8.00;5.70;;;;;;;13.57;85.47;101443.84;5056293;28;20201;-70
2021/10/28 05:11:30;;;;;;;7.33;5.90;;;;;;;13.41;86.77;101440.28;5073694;28;20544;-70
2021/10/28 05:13:55;;;;;;;6.73;5.10;;;;;;;13.64;85.34;101445.22;5055848;28;20186;-70
2021/10/28 05:16:21;;;;;;;9.33;5.63;;;;;;;13.49;85.94;101440.72;5073349;28;20179;-69
2021/10/28 05:18:46;;;;;;;10.13;5.77;;;;;;;13.36;85.25;101440.50;5056718;28;20175;-70
2021/10/28 05:21:13;;;;;;;13.97;5.77;;;;;;;13.25;86.47;101442.91;5056337;28;20183;-70
2021/10/28 05:23:39;;;;;;;9.03;5.87;;;;;;;12.75;87.52;101438.44;5056559;28;20671;-68
2021/10/28 05:26:06;;;;;;;7.80;5.90;;;;;;;13.05;87.65;101446.66;5055930;28;20191;-61
2021/10/28 05:28:32;;;;;;;14.07;6.80;;;;;;;13.08;87.43;101445.63;5073706;28;20202;-64
2021/10/28 05:30:57;;;;;;;8.03;5.47;;;;;;;13.28;85.79;101441.88;5073341;28;20215;-64
2021/10/28 05:33:23;;;;;;;7.87;6.20;;;;;;;12.94;87.71;101442.78;5073709;28;20208;-63
2021/10/28 05:35:48;;;;;;;10.90;6.40;;;;;;;13.40;85.46;101447.47;5073625;28;20202;-64
2021/10/28 05:38:14;;;;;;;11.20;6.07;;;;;;;13.14;85.26;101437.25;5073551;28;20265;-65
2021/10/28 05:40:40;;;;;;;9.80;6.80;;;;;;;12.58;87.92;101433.06;5074628;28;20640;-62
2021/10/28 05:43:07;;;;;;;12.27;6.27;;;;;;;12.86;87.30;101447.69;5074444;28;20198;-63
2021/10/28 05:45:33;;;;;;;9.60;6.50;;;;;;;12.59;87.83;101439.28;5074294;28;20174;-62
2021/10/28 05:47:59;;;;;;;13.47;6.53;;;;;;;12.67;88.15;101448.69;5073345;28;20293;-63
2021/10/28 05:50:24;;;;;;;13.40;7.20;;;;;;;12.90;87.95;101457.31;5073562;28;20198;-63
2021/10/28 05:52:52;;;;;;;10.50;7.03;;;;;;;12.48;88.76;101446.06;5073488;28;20201;-63
2021/10/28 05:55:20;;;;;;;11.43;6.43;;;;;;;12.80;87.68;101457.78;5073216;28;20175;-63
2021/10/28 05:57:45;;;;;;;12.47;6.80;;;;;;;12.80;86.60;101447.09;5072963;28;20174;-64
2021/10/28 06:00:11;;;;;;;10.03;6.67;;;;;;;12.60;88.13;101446.38;5073397;28;20179;-62
2021/10/28 06:02:36;;;;;;;11.47;7.40;;;;;;;12.31;89.31;101461.25;5086501;22;20274;-70
2021/10/28 06:05:05;;;;;;;12.73;6.90;;;;;;;12.34;89.25;101445.91;5076030;28;20181;-69
2021/10/28 06:07:30;;;;;;;11.90;7.03;;;;;;;12.61;87.48;101446.28;5076219;28;20602;-73
2021/10/28 06:09:56;;;;;;;12.80;7.07;;;;;;;12.69;88.10;101454.81;5093854;28;20203;-72
2021/10/28 06:12:21;;;;;;;11.90;6.90;;;;;;;12.61;87.24;101446.28;5094494;28;20198;-73
2021/10/28 06:14:47;;;;;;;12.70;7.00;;;;;;;12.72;87.52;101449.31;5093913;28;20257;-72
2021/10/28 06:17:15;;;;;;;17.77;9.37;;;;;;;12.70;87.51;101456.56;5075558;28;20173;-72
2021/10/28 06:19:40;;;;;;;10.30;7.13;;;;;;;12.46;88.38;101458.66;5075598;28;20626;-72
2021/10/28 06:22:06;;;;;;;20.30;11.50;;;;;;;12.78;88.32;101469.53;5058457;28;20204;-71
2021/10/28 06:24:32;;;;;;;13.80;8.20;;;;;;;12.66;88.11;101468.38;5075313;28;20177;-72
2021/10/28 06:26:57;;;;;;;13.20;7.47;;;;;;;12.42;87.71;101450.88;5077402;28;20204;-71
2021/10/28 06:29:23;;;;;;;10.67;7.23;;;;;;;12.37;87.17;101453.78;5062427;28;20629;-72
2021/10/28 06:31:49;;;;;;;11.47;7.37;;;;;;;12.45;87.50;101464.09;5078994;28;20216;-72
2021/10/28 06:34:21;;;;;;;10.50;6.60;;;;;;;12.49;88.20;101471.03;5079814;28;20184;-72
2021/10/28 06:36:48;;;;;;;12.50;7.20;;;;;;;12.31;88.32;101471.97;5079374;28;20173;-70
2021/10/28 06:39:13;;;;;;;9.10;6.77;;;;;;;12.40;87.98;101464.34;5079297;28;20169;-72
2021/10/28 06:41:39;;;;;;;17.97;8.37;;;;;;;12.18;89.01;101464.53;5079228;28;20524;-70
2021/10/28 06:44:04;;;;;;;13.23;7.77;;;;;;;12.20;88.56;101459.97;5097170;28;20186;-71
2021/10/28 06:46:30;;;;;;;14.13;7.73;;;;;;;11.94;89.51;101468.41;5078906;28;20204;-71
2021/10/28 06:48:55;;;;;;;16.10;8.60;;;;;;;12.01;89.68;101467.19;5078584;28;20273;-73
2021/10/28 06:51:22;;;;;;;10.13;7.83;;;;;;;12.17;88.64;101462.78;5062207;28;20180;-73
2021/10/28 06:54:06;;;;;;;10.93;7.17;;;;;;;11.93;90.12;101466.69;5079508;28;20562;-72
2021/10/28 06:56:59;;;;;;;13.50;7.93;;;;;;;12.14;88.37;101462.09;5106948;28;20156;-72
2021/10/28 07:04:57;;;;;;;15.17;7.73;;;;;;;12.12;88.46;101475.53;5095281;28;20230;-71
2021/10/28 07:07:23;;;;;;;12.63;7.50;;;;;;;11.93;89.37;101482.75;5103758;28;20181;-71
2021/10/28 07:09:58;;;;;;;10.37;7.60;;;;;;;11.92;88.09;101474.78;5096728;28;20185;-70
2021/10/28 07:12:39;;;;;;;10.10;6.97;;;;;;;12.30;87.09;101467.56;5096550;28;20196;-70
2021/10/28 07:15:11;;;;;;;12.20;7.43;;;;;;;12.23;87.46;101479.47;5078290;28;20162;-71
2021/10/28 07:20:21;;;;;;;12.07;7.17;;;;;;;11.91;89.33;101483.75;5096352;28;20181;-71
2021/10/28 07:23:02;;;;;;;12.50;8.50;;;;;;;12.37;88.09;101485.91;5096514;28;20194;-71
2021/10/28 07:26:35;;;;;;;10.33;7.57;;;;;;;12.09;88.15;101469.47;5096183;28;20159;-71
2021/10/28 07:34:07;;;;;;;11.20;7.17;;;;;;;12.94;84.01;101481.16;5097149;28;20201;-70
2021/10/28 07:56:06;;;;;;;9.33;6.57;;;;;;;14.36;79.25;101508.22;5081224;28;20655;-71
2021/10/28 08:14:51;;;;;;;7.93;5.63;;;;;;;14.89;77.05;101496.16;5080760;28;20196;-71
2021/10/28 08:17:42;;;;;;;9.50;5.43;;;;;;;15.33;75.58;101507.75;5080757;28;20269;-71
2021/10/28 08:20:18;;;;;;;8.57;5.63;;;;;;;14.85;76.25;101483.84;5081751;28;20169;-71
2021/10/28 08:22:49;;;;;;;7.80;5.27;;;;;;;15.11;75.26;101491.19;5095813;28;20272;-72
2021/10/28 08:30:43;;;;;;;7.90;6.30;;;;;;;15.21;74.96;101481.59;5095337;28;20161;-71
2021/10/28 08:33:10;;;;;;;9.13;5.43;;;;;;;15.06;75.67;101481.69;5095359;28;20194;-72
2021/10/28 08:35:37;;;;;;;7.33;5.53;;;;;;;15.35;75.68;101486.13;5077394;28;20177;-72
2021/10/28 08:38:03;;;;;;;11.20;5.93;;;;;;;15.10;75.83;101473.34;5095136;28;20165;-72
2021/10/28 08:40:28;;;;;;;8.33;6.07;;;;;;;14.26;78.96;101450.63;5096127;28;20706;-70
2021/10/28 08:42:54;;;;;;;9.10;6.17;;;;;;;14.98;75.98;101457.97;5097334;28;20190;-72
2021/10/28 08:45:21;;;;;;;7.83;5.50;;;;;;;15.57;74.68;101478.44;5063025;28;20171;-71
2021/10/28 08:47:56;;;;;;;7.97;6.37;;;;;;;15.27;75.50;101470.50;5081963;28;20618;-71
2021/10/28 08:50:38;;;;;;;10.40;5.67;;;;;;;15.33;75.63;101467.41;5099510;28;20178;-72
2021/10/28 08:55:58;;;;;;;9.10;5.23;;;;;;;15.56;75.67;101470.44;5095304;28;20524;-72
2021/10/28 09:24:23;;;;;;;8.13;4.80;;;;;;;16.48;71.71;101452.72;5094984;28;20220;-72
2021/10/28 09:26:59;;;;;;;10.00;4.53;;;;;;;16.91;71.77;101473.22;5095526;28;20166;-72
2021/10/28 09:29:49;;;;;;;9.93;5.10;;;;;;;16.12;73.18;101447.97;5078469;28;20193;-71
2021/10/28 09:32:42;;;;;;;6.40;3.77;;;;;;;16.56;72.35;101461.16;5094513;28;20182;-72
2021/10/28 09:35:23;;;;;;;8.47;4.60;;;;;;;16.43;71.91;101452.19;5079714;28;20207;-72
2021/10/28 09:43:55;;;;;;;7.80;4.60;;;;;;;17.52;68.63;101475.16;5079379;28;20247;-71
2021/10/28 09:59:44;;;;;;;5.37;4.00;;;;;;;17.69;68.98;101460.47;5095942;28;20179;-72
2021/10/28 10:02:27;;;;;;;6.23;3.87;;;;;;;17.55;68.56;101442.53;5095408;28;20579;-72
2021/10/28 10:04:53;;;;;;;6.43;3.80;;;;;;;18.68;65.36;101455.75;5095027;28;20515;-69
2021/10/28 10:07:20;;;;;;;4.40;3.73;;;;;;;18.59;65.99;101446.47;5059218;28;20180;-71
2021/10/28 10:09:46;;;;;;;6.33;4.23;;;;;;;18.17;66.73;101434.34;5076560;28;20564;-71
2021/10/28 10:12:12;;;;;;;9.90;4.57;;;;;;;18.23;66.35;101433.06;5076255;28;20205;-72
2021/10/28 10:14:39;;;;;;;4.77;3.90;;;;;;;17.95;67.15;101428.84;5094656;28;20543;-71
2021/10/28 10:17:06;;;;;;;8.57;4.77;;;;;;;18.80;65.05;101448.50;5093997;28;20162;-71
2021/10/28 10:19:37;;;;;;;5.70;3.83;;;;;;;18.40;65.25;101422.69;5075864;28;20555;-69
2021/10/28 10:22:16;;;;;;;5.23;3.80;;;;;;;19.40;63.88;101452.78;5075970;28;20259;-70
2021/10/28 10:24:51;;;;;;;4.70;3.97;;;;;;;18.25;66.42;101423.84;5075784;28;20532;-69
2021/10/28 11:23:21;;;;;;;6.40;3.17;;;;;;;25.76;47.76;101363.63;5081180;28;20250;-72
2021/10/28 11:26:14;;;;;;;5.50;2.20;;;;;;;26.41;46.13;101344.56;5082314;28;20564;-71
2021/10/28 11:32:08;;;;;;;3.63;2.43;;;;;;;23.71;49.40;101280.53;5096319;28;20519;-74
2021/10/28 12:44:24;;;;;;;7.17;2.93;;;;;;;25.34;48.37;101254.34;5080760;28;20221;-71
2021/10/28 12:49:59;;;;;;;4.53;2.57;;;;;;;24.82;48.26;101210.75;5095175;28;20671;-71
2021/10/28 13:06:16;;;;;;;3.87;2.40;;;;;;;24.41;48.71;101187.88;5076707;28;20562;-73
2021/10/28 13:37:48;;;;;;;4.13;2.40;;;;;;;26.24;46.45;101217.81;5093309;28;20264;-71
2021/10/28 13:48:07;;;;;;;3.50;2.13;;;;;;;23.29;51.82;101193.06;5094189;28;20574;-70
2021/10/28 13:50:21;;;;;;;4.17;2.50;;;;;;;23.53;51.98;101211.53;5093698;28;20244;-71
2021/10/28 13:58:24;;;;;;;6.97;3.20;;;;;;;23.35;52.08;101193.31;5078574;28;20203;-72
2021/10/28 14:15:03;;;;;;;9.30;2.63;;;;;;;24.26;50.24;101188.47;5081731;28;20701;-73
2021/10/28 14:20:46;;;;;;;3.40;2.77;;;;;;;24.33;50.13;101194.16;5078479;28;20251;-71
2021/10/28 14:23:15;;;;;;;3.90;2.50;;;;;;;25.73;47.28;101200.78;5093612;28;20194;-71
2021/10/28 14:29:23;;;;;;;5.80;2.50;;;;;;;25.52;48.00;101203.13;5075802;28;20201;-71
2021/10/28 14:34:44;;;;;;;5.03;2.60;;;;;;;24.18;51.04;101185.69;5092791;28;20255;-71
2021/10/28 14:59:16;;;;;;;5.20;2.80;;;;;;;22.77;53.52;101154.72;5082439;28;20646;-72
2021/10/28 15:01:56;;;;;;;4.57;3.10;;;;;;;22.77;53.41;101139.25;5096899;28;20186;-72
2021/10/28 15:28:59;;;;;;;5.70;2.90;;;;;;;20.06;60.04;101096.91;5080563;28;20193;-72
2021/10/28 16:22:38;;;;;;;16.97;12.27;;;;;;;16.20;73.77;101065.06;5079783;28;20188;-75
2021/10/28 16:25:04;;;;;;;21.20;14.20;;;;;;;16.10;73.71;101066.69;5077475;28;20166;-71
2021/10/28 16:27:29;;;;;;;12.17;8.57;;;;;;;16.00;74.84;101073.72;5076534;28;20281;-70
2021/10/28 16:29:54;;;;;;;9.13;7.50;;;;;;;16.04;74.11;101080.59;5094776;28;20645;-71
2021/10/28 16:32:20;;;;;;;9.47;6.50;;;;;;;15.84;75.34;101077.50;5095045;28;20193;-74
2021/10/28 16:34:45;;;;;;;12.23;6.93;;;;;;;15.85;75.64;101078.34;5076817;28;20174;-75
2021/10/28 16:37:13;;;;;;;7.90;5.80;;;;;;;15.65;75.81;101076.22;5094344;28;20272;-71
2021/10/28 16:39:38;;;;;;;10.17;6.00;;;;;;;15.53;76.13;101075.19;5094327;28;20176;-72
2021/10/28 16:42:04;;;;;;;11.17;5.47;;;;;;;15.52;76.06;101065.41;5075880;28;20170;-73
2021/10/28 16:44:29;;;;;;;6.47;5.03;;;;;;;15.55;76.04;101073.25;5094573;28;20197;-72
2021/10/28 16:46:55;;;;;;;15.63;5.40;;;;;;;15.22;76.73;101063.84;5094359;28;20173;-72
2021/10/28 16:49:21;;;;;;;6.57;4.93;;;;;;;15.36;75.96;101076.38;5076160;28;20190;-70
2021/10/28 16:51:47;;;;;;;7.77;5.00;;;;;;;15.37;75.93;101078.09;5059228;28;20170;-73
2021/10/28 16:54:13;;;;;;;7.40;5.10;;;;;;;15.41;76.08;101068.84;5094327;28;20179;-72
2021/10/28 16:56:39;;;;;;;8.67;6.07;;;;;;;15.20;76.01;101060.41;5076362;28;20166;-71
2021/10/28 16:59:04;;;;;;;10.87;6.30;;;;;;;15.21;76.00;101063.97;5094224;28;20372;-71
2021/10/28 17:01:30;;;;;;;9.67;5.73;;;;;;;15.20;76.19;101060.41;5094364;28;20235;-71
2021/10/28 17:03:55;;;;;;;10.37;5.30;;;;;;;15.05;76.29;101060.63;5093780;28;20301;-71
2021/10/28 17:06:21;;;;;;;8.43;4.90;;;;;;;15.28;75.95;101067.97;5094342;28;20178;-72
2021/10/28 17:08:48;;;;;;;8.83;5.43;;;;;;;14.96;76.73;101065.66;5104901;28;20219;-74
2021/10/28 17:11:14;;;;;;;7.93;5.60;;;;;;;14.85;76.73;101056.56;5110910;28;20177;-73
2021/10/28 17:13:40;;;;;;;6.67;5.50;;;;;;;15.05;76.51;101066.00;5110337;28;20185;-74
2021/10/28 17:16:06;;;;;;;8.17;5.83;;;;;;;15.10;75.88;101067.41;5084561;28;20175;-71
2021/10/28 17:18:32;;;;;;;9.50;5.53;;;;;;;14.68;77.04;101052.34;5075807;28;20170;-72
2021/10/28 17:21:00;;;;;;;9.70;5.27;;;;;;;14.93;76.04;101056.94;5075452;28;20308;-71
2021/10/28 17:23:34;;;;;;;10.67;5.80;;;;;;;14.80;76.47;101056.03;5093485;28;20190;-71
2021/10/28 17:26:02;;;;;;;9.10;5.67;;;;;;;14.80;76.64;101061.38;5060006;28;20170;-72
2021/10/28 17:28:28;;;;;;;7.60;5.40;;;;;;;14.77;76.46;101061.59;5094215;28;20543;-71
2021/10/28 17:30:53;;;;;;;8.23;6.20;;;;;;;14.85;75.27;101049.38;5075125;28;20215;-74
2021/10/28 17:33:19;;;;;;;10.10;5.53;;;;;;;14.79;75.54;101057.84;5075190;28;20658;-72
2021/10/28 17:35:44;;;;;;;8.93;5.50;;;;;;;14.80;75.47;101056.88;5075475;28;20185;-70
2021/10/28 17:38:09;;;;;;;6.03;4.70;;;;;;;14.86;75.19;101069.03;5059009;28;20174;-71
2021/10/28 17:40:35;;;;;;;12.50;5.43;;;;;;;14.74;74.88;101059.97;5093321;28;20170;-69
2021/10/28 17:43:00;;;;;;;7.33;4.97;;;;;;;14.61;75.48;101062.63;5058146;28;20194;-69
2021/10/28 17:45:30;;;;;;;6.10;4.67;;;;;;;14.81;74.60;101068.50;5075164;28;20227;-70
2021/10/28 17:47:57;;;;;;;8.73;5.27;;;;;;;14.79;74.73;101065.03;5092949;28;20174;-70
2021/10/28 17:50:24;;;;;;;7.93;5.70;;;;;;;14.69;74.80;101070.19;5093359;28;20170;-71
2021/10/28 17:52:50;;;;;;;6.47;5.03;;;;;;;14.69;74.39;101060.28;5075506;28;20263;-70
2021/10/28 17:55:16;;;;;;;9.13;5.27;;;;;;;14.56;75.15;101070.13;5074991;28;20181;-71
2021/10/28 17:57:44;;;;;;;9.70;5.10;;;;;;;14.68;74.55;101066.63;5093552;28;20265;-70
2021/10/28 18:00:12;;;;;;;7.83;5.63;;;;;;;14.78;74.27;101074.94;5058383;28;20239;-70
2021/10/28 18:02:37;;;;;;;7.97;5.40;;;;;;;14.68;74.46;101069.31;5076427;28;20579;-70
2021/10/28 18:05:03;;;;;;;7.37;4.63;;;;;;;14.48;74.58;101060.81;5075032;28;20191;-71
2021/10/28 18:07:28;;;;;;;7.07;5.47;;;;;;;14.37;75.00;101059.69;5057822;28;20255;-71
2021/10/28 18:09:54;;;;;;;7.40;5.03;;;;;;;14.51;74.71;101061.53;5075167;28;20198;-72
2021/10/28 18:12:19;;;;;;;6.47;4.57;;;;;;;14.49;74.34;101058.03;5075211;28;20194;-70
2021/10/28 18:14:44;;;;;;;8.40;5.13;;;;;;;14.80;73.74;101069.44;5075180;28;20170;-70
2021/10/28 18:17:11;;;;;;;7.00;5.10;;;;;;;14.55;74.48;101054.97;5092718;28;20544;-70
2021/10/28 18:19:36;;;;;;;6.50;5.30;;;;;;;14.21;75.56;101047.38;5092919;28;20646;-70
2021/10/28 18:22:02;;;;;;;9.70;5.57;;;;;;;14.51;74.66;101055.28;5058417;28;20207;-71
2021/10/28 18:24:27;;;;;;;8.37;5.70;;;;;;;14.32;75.09;101047.53;5062147;28;20227;-70
2021/10/28 18:26:55;;;;;;;10.77;6.30;;;;;;;14.52;74.49;101055.19;5097193;28;20174;-70
2021/10/28 18:29:21;;;;;;;11.03;6.77;;;;;;;14.43;74.67;101055.75;5062003;28;20206;-69
2021/10/28 18:31:47;;;;;;;8.70;6.40;;;;;;;14.48;74.70;101050.94;5097008;28;20235;-71
2021/10/28 18:34:12;;;;;;;8.43;6.80;;;;;;;14.49;74.63;101052.66;5078527;28;20182;-70
2021/10/28 18:36:38;;;;;;;8.90;6.57;;;;;;;14.41;74.41;101038.84;5097033;28;20252;-70
2021/10/28 18:39:05;;;;;;;8.87;6.67;;;;;;;14.46;74.75;101049.31;5078440;28;20539;-71
2021/10/28 18:41:31;;;;;;;8.70;6.47;;;;;;;14.67;74.01;101050.63;5097332;28;20526;-71
2021/10/28 18:43:56;;;;;;;7.60;6.10;;;;;;;14.79;73.01;101056.97;5096653;28;20202;-71
2021/10/28 18:46:22;;;;;;;8.97;6.27;;;;;;;14.29;74.25;101037.84;5078694;28;20547;-72
2021/10/28 18:48:52;;;;;;;8.90;6.90;;;;;;;14.74;73.58;101057.28;5078278;28;20202;-71
2021/10/28 18:51:18;;;;;;;8.93;7.00;;;;;;;14.57;73.64;101046.81;5096424;28;20543;-72
2021/10/28 18:53:45;;;;;;;8.77;6.93;;;;;;;14.69;73.29;101049.53;5077955;28;20217;-70
2021/10/28 18:56:11;;;;;;;9.37;6.60;;;;;;;14.52;73.94;101040.91;5096206;28;20185;-69
2021/10/28 18:58:37;;;;;;;9.03;6.87;;;;;;;14.40;73.98;101039.81;5061334;28;20174;-69
2021/10/28 19:01:02;;;;;;;9.13;7.50;;;;;;;14.72;73.27;101036.88;5096609;28;20171;-70
2021/10/28 19:03:28;;;;;;;10.07;7.53;;;;;;;14.32;74.62;101029.59;5077915;28;20209;-71
2021/10/28 19:05:55;;;;;;;9.40;7.37;;;;;;;13.83;75.98;101014.94;5096419;28;20175;-70
2021/10/28 19:08:21;;;;;;;10.83;7.93;;;;;;;14.38;74.94;101037.25;5078230;28;20198;-70
2021/10/28 19:10:46;;;;;;;12.80;8.47;;;;;;;14.36;74.57;101035.63;5077983;28;20182;-69